Fort-de-France, Martinique
Current Conditions -  °F | °C
As of 11:00 AM on Monday 24 Nov 2014 (Local Time) from TFFF Reporting Station
Broken Clouds Broken Clouds  
Wind Chill: 86°   Ceiling: 2900
Heat Index: 93°   Visibility: 6mi
Dew Point: 73°   Wind: 17mph
Humidity: 66%   Direction: 80°E
Pressure: 30"   Gusts: NA
Location:  14.6°N, 61.08°W
Report Text: TFFF 241500Z AUTO 08015KT 040V100 9999 BKN029 BKN042 BKN04930/23 Q1016
Loading
Personal Weather Stations






























Interactive Weather Map New forecast layout! Learn more

10-Day Weather Forecast

Advertisements
Track Severe Weather on mobile